Mormon Lake, AZ (86038)

2:47 PM MST on December 17, 2014 (GMT -0700)
RAWS MORMON LAKE AZ US | Change Station
CLOSE
Current Station
Personal Weather Station
Location: Mormon Lake, AZ
Elevation: 7399 ft
Nearby Weather Stations
Active Advisory: Winter Weather Advisory Active Notice: Public Information Statement

Elev 7399 ft 34.91 °N, 111.44 °W | Updated 44 minutes ago

Snow
Snow
32 °F
Feels Like 32 °F
N
1
Wind Variable Wind from SW
Gusts 12.0 mph

Today
High -- | Low -- °F
--% Chance of Precip.
Yesterday
High -- | Low -- °F
Precip. -- in
7:27 AM 5:16 PM
Waning Crescent, 19% visible
Pressure 30.01 in
Visibility 10.0 miles
Clouds Scattered Clouds 1000 ft
Mostly Cloudy 1600 ft
Overcast 5500 ft
Windchill 32 °F
Dew Point 29 °F
Humidity 90%
Rainfall 0.00 in
Snow Depth Not available.
UV 1 out of 12
Pollen .10 out of 12
Air Quality Not available.
Flu Activity Not available.
SPECI KFLG 172134Z 21011KT 10SM SCT010 BKN016 OVC055 01/M01 A3001 RMK AO2 SNB06E28 P0000 T00111011

More Conditions Fewer Conditions

Pressure 30.01 in
Visibility 10.0 miles
Clouds Scattered Clouds 1000 ft
Mostly Cloudy 1600 ft
Overcast 5500 ft
Windchill 32 °F
Dew Point 29 °F
Humidity 90%
Rainfall 0.00 in
Snow Depth Not available.
UV 1 out of 12
Pollen .10 out of 12
Air Quality Not available.
Flu Activity Not available.
SPECI KFLG 172134Z 21011KT 10SM SCT010 BKN016 OVC055 01/M01 A3001 RMK AO2 SNB06E28 P0000 T00111011

More Conditions Fewer Conditions

10-Day Weather Forecast

Almanac

Astronomy

Dec. 17, 2014 Rise Set
Actual Time
Civil Twilight
Nautical Twilight
Astronomical Twilight
Moon
Length of Visible Light
Length of Day
Tomorrow will be .
, % of the Moon is Illuminated

Today's Extremes

State Highs State Lows

Community

WunderPhotos

Upload Photos

1,778,807 photos uploaded!

WunderBlogs® & News

Nearby

Air Quality

  Air Quality AQ Index Pollutant
Not available.

Snow Depth

Station Depth Elevation

Earthquake Activity

City Distance Mag. Time & Date
Minimum magnitude displayed is 2.5.

Coastal Water Temperatures

Place Temperature

Nearby Weather Stations